Time;durP1;ratioP1;P1;durP2;ratioP2;P2;SDS_P1;SDS_P2;PMS_P1;PMS_P2;Temp;Humidity;BMP_temperature;BMP_pressure;BME280_temperature;BME280_humidity;BME280_pressure;Samples;Min_cycle;Max_cycle;Signal;HPM_P1;HPM_P2
2021/08/17 00:02:25;;;;;;;7.28;4.63;;;;;;;11.95;100.00;95445.94;5037441;28;20018;-53
2021/08/17 00:04:56;;;;;;;6.85;4.07;;;;;;;11.94;100.00;95443.50;5038732;28;20575;-55
2021/08/17 00:07:27;;;;;;;7.95;4.35;;;;;;;11.90;100.00;95435.97;5038682;28;20021;-58
2021/08/17 00:09:52;;;;;;;5.85;4.15;;;;;;;11.91;100.00;95444.84;5038527;28;20025;-58
2021/08/17 00:12:17;;;;;;;7.38;4.13;;;;;;;11.90;100.00;95440.56;5038651;28;20527;-57
2021/08/17 00:14:46;;;;;;;5.72;3.95;;;;;;;11.90;100.00;95441.34;5037461;28;20571;-55
2021/08/17 00:17:15;;;;;;;6.70;4.10;;;;;;;11.92;100.00;95434.91;5037190;28;20481;-57
2021/08/17 00:19:46;;;;;;;5.85;4.43;;;;;;;11.92;100.00;95424.19;5038542;28;20044;-54
2021/08/17 00:22:12;;;;;;;6.40;3.75;;;;;;;11.91;100.00;95412.63;5038748;28;20460;-55
2021/08/17 00:24:37;;;;;;;7.38;4.45;;;;;;;11.90;100.00;95406.47;5037112;28;20036;-59
2021/08/17 00:27:03;;;;;;;8.15;4.20;;;;;;;11.91;100.00;95393.84;5038505;28;20017;-59
2021/08/17 00:29:29;;;;;;;6.47;3.88;;;;;;;11.92;100.00;95395.44;5038462;28;20484;-58
2021/08/17 00:31:54;;;;;;;7.50;4.05;;;;;;;11.94;100.00;95389.81;5038420;28;20107;-58
2021/08/17 00:34:20;;;;;;;5.97;3.83;;;;;;;11.93;100.00;95386.31;5038423;28;20030;-55
2021/08/17 00:36:47;;;;;;;6.05;3.97;;;;;;;11.94;100.00;95385.28;5038363;28;20108;-54
2021/08/17 00:39:18;;;;;;;7.43;4.05;;;;;;;11.90;100.00;95376.13;5038364;28;20528;-56
2021/08/17 00:41:49;;;;;;;7.80;4.38;;;;;;;11.90;100.00;95354.66;5038363;28;20037;-54
2021/08/17 00:44:25;;;;;;;6.57;3.83;;;;;;;11.89;100.00;95355.72;5038237;28;20399;-58
2021/08/17 00:46:55;;;;;;;6.18;4.03;;;;;;;11.88;100.00;95338.00;5038476;28;20021;-55
2021/08/17 00:49:24;;;;;;;6.15;3.65;;;;;;;11.85;100.00;95327.81;5018545;28;20436;-57
2021/08/17 00:51:51;;;;;;;6.40;4.25;;;;;;;11.86;100.00;95324.06;5018339;28;20113;-58
2021/08/17 00:54:19;;;;;;;9.18;4.18;;;;;;;11.88;100.00;95311.97;5000852;28;20033;-54
2021/08/17 00:57:00;;;;;;;6.25;4.03;;;;;;;11.88;100.00;95311.19;5018915;28;20036;-54
2021/08/17 00:59:36;;;;;;;7.05;4.30;;;;;;;11.87;100.00;95301.50;5036888;28;20033;-55
2021/08/17 01:02:02;;;;;;;6.07;4.32;;;;;;;11.83;100.00;95290.53;5038073;28;20112;-56
2021/08/17 01:04:28;;;;;;;6.30;4.18;;;;;;;11.82;100.00;95282.72;5037692;28;20034;-53
2021/08/17 01:06:53;;;;;;;5.20;3.92;;;;;;;11.82;100.00;95283.50;5034764;28;20029;-56
2021/08/17 01:09:19;;;;;;;6.50;4.13;;;;;;;11.82;100.00;95278.16;5034691;28;20552;-56
2021/08/17 01:11:47;;;;;;;6.55;3.85;;;;;;;11.84;100.00;95273.34;5033615;28;20076;-59
2021/08/17 01:14:16;;;;;;;6.63;3.83;;;;;;;11.86;100.00;95270.38;5034974;28;20354;-59
2021/08/17 01:16:44;;;;;;;6.95;3.95;;;;;;;11.88;100.00;95255.63;5034888;28;20028;-58
2021/08/17 01:19:13;;;;;;;6.13;4.07;;;;;;;11.89;100.00;95243.00;5034792;28;20108;-58
2021/08/17 01:21:44;;;;;;;5.32;3.55;;;;;;;11.89;100.00;95237.63;5033438;28;20546;-58
2021/08/17 01:24:10;;;;;;;7.13;3.65;;;;;;;11.93;100.00;95244.06;5034664;28;20033;-58
2021/08/17 01:26:39;;;;;;;7.22;3.97;;;;;;;11.96;100.00;95243.53;5034678;28;20396;-59
2021/08/17 01:29:04;;;;;;;6.25;4.28;;;;;;;11.98;100.00;95241.38;5034461;28;20075;-58
2021/08/17 01:31:32;;;;;;;6.20;4.18;;;;;;;12.00;100.00;95239.22;5033541;28;20021;-57
2021/08/17 01:33:58;;;;;;;6.30;4.13;;;;;;;12.01;100.00;95223.94;5034480;28;20109;-56
2021/08/17 01:36:26;;;;;;;6.75;4.40;;;;;;;12.03;100.00;95229.84;5034949;28;20163;-55
2021/08/17 01:38:52;;;;;;;6.55;4.10;;;;;;;12.03;100.00;95225.25;5032753;28;20458;-56
2021/08/17 01:44:12;;;;;;;8.48;4.40;;;;;;;12.06;100.00;95213.22;5034289;28;20048;-53
2021/08/17 01:46:43;;;;;;;6.43;3.72;;;;;;;12.05;100.00;95219.66;5033075;28;20532;-60
2021/08/17 01:49:16;;;;;;;8.07;4.97;;;;;;;12.04;100.00;95205.41;5032970;28;20029;-54
2021/08/17 01:51:45;;;;;;;8.82;5.32;;;;;;;12.04;100.00;95212.66;5034242;28;20025;-55
2021/08/17 01:54:15;;;;;;;7.57;4.85;;;;;;;12.02;100.00;95215.59;5013184;28;20113;-58
2021/08/17 01:56:42;;;;;;;8.07;5.30;;;;;;;12.02;100.00;95204.88;5014431;28;20026;-57
2021/08/17 01:59:07;;;;;;;8.50;5.00;;;;;;;12.03;100.00;95206.47;5014096;28;20397;-55
2021/08/17 02:01:36;;;;;;;8.70;5.65;;;;;;;12.03;100.00;95200.31;5014579;28;20032;-57
2021/08/17 02:04:10;;;;;;;7.82;5.20;;;;;;;12.03;100.00;95200.31;5026624;28;20053;-56
2021/08/17 02:06:38;;;;;;;10.25;6.38;;;;;;;12.03;100.00;95205.66;5014083;28;20026;-56
2021/08/17 02:09:04;;;;;;;12.63;6.78;;;;;;;12.02;100.00;95196.81;5012881;28;20034;-57
2021/08/17 02:11:29;;;;;;;11.95;7.03;;;;;;;11.99;100.00;95200.03;5017514;28;20053;-56
2021/08/17 02:13:54;;;;;;;15.40;7.63;;;;;;;11.99;100.00;95202.72;5012644;28;20026;-56
2021/08/17 02:16:23;;;;;;;12.02;7.38;;;;;;;11.98;100.00;95203.81;5012775;28;20416;-58
2021/08/17 02:18:56;;;;;;;12.30;7.18;;;;;;;11.98;100.00;95203.00;5011563;28;20060;-59
2021/08/17 02:21:21;;;;;;;13.30;8.00;;;;;;;11.97;100.00;95201.41;5013857;28;20440;-57
2021/08/17 02:23:51;;;;;;;17.13;7.65;;;;;;;11.96;100.00;95200.59;5013976;28;20080;-58
2021/08/17 02:26:20;;;;;;;12.82;8.00;;;;;;;11.95;100.00;95192.81;5012495;28;20111;-59
2021/08/17 02:28:52;;;;;;;12.90;8.10;;;;;;;11.95;100.00;95199.00;5013803;28;20120;-59
2021/08/17 02:31:18;;;;;;;15.93;9.25;;;;;;;11.94;100.00;95196.53;5013646;28;20034;-59
2021/08/17 02:33:47;;;;;;;16.10;9.02;;;;;;;11.94;100.00;95201.91;5013622;28;20080;-57
2021/08/17 02:36:15;;;;;;;15.18;8.98;;;;;;;11.91;100.00;95192.53;5012312;28;20391;-59
2021/08/17 02:38:40;;;;;;;15.32;9.38;;;;;;;11.89;100.00;95202.75;5015843;28;20440;-58
2021/08/17 02:41:12;;;;;;;16.85;10.10;;;;;;;11.89;100.00;95192.00;5033328;28;20025;-57
2021/08/17 02:43:37;;;;;;;17.20;9.68;;;;;;;11.88;100.00;95188.50;5033484;28;20025;-56
2021/08/17 02:46:06;;;;;;;16.90;9.82;;;;;;;11.87;100.00;95194.97;5033069;28;20025;-57
2021/08/17 02:48:37;;;;;;;15.07;9.43;;;;;;;11.84;100.00;95175.91;5015396;28;20048;-57
2021/08/17 02:51:15;;;;;;;17.75;9.80;;;;;;;11.82;100.00;95191.47;5033044;28;20021;-56
2021/08/17 02:53:48;;;;;;;17.02;9.55;;;;;;;11.80;100.00;95185.56;5033079;28;20072;-55
2021/08/17 02:56:13;;;;;;;18.45;9.45;;;;;;;11.80;100.00;95197.09;5033046;28;20036;-59
2021/08/17 02:58:42;;;;;;;14.85;10.05;;;;;;;11.79;100.00;95190.13;5032987;28;20431;-57
2021/08/17 03:01:07;;;;;;;17.38;10.35;;;;;;;11.78;100.00;95190.38;5032956;28;20430;-56
2021/08/17 03:03:32;;;;;;;16.60;10.13;;;;;;;11.76;100.00;95185.28;5032870;28;20116;-57
2021/08/17 03:05:58;;;;;;;18.08;10.15;;;;;;;11.75;100.00;95182.88;5032695;28;20056;-57
2021/08/17 03:08:23;;;;;;;18.45;10.77;;;;;;;11.74;100.00;95179.38;5032752;28;20025;-58
2021/08/17 03:10:51;;;;;;;17.30;10.05;;;;;;;11.73;100.00;95176.97;5032685;28;20040;-58
2021/08/17 03:13:16;;;;;;;14.40;8.57;;;;;;;11.72;100.00;95175.34;5032555;28;20104;-54
2021/08/17 03:15:42;;;;;;;18.73;10.23;;;;;;;11.68;100.00;95183.13;5032766;28;20167;-56
2021/08/17 03:18:11;;;;;;;15.35;9.82;;;;;;;11.65;100.00;95186.34;5014872;28;20057;-57
2021/08/17 03:20:37;;;;;;;16.88;10.02;;;;;;;11.66;100.00;95181.78;5015379;28;20108;-58
2021/08/17 03:23:14;;;;;;;21.45;10.60;;;;;;;11.66;100.00;95187.16;5014774;28;20120;-58
2021/08/17 03:25:50;;;;;;;17.48;9.98;;;;;;;11.65;100.00;95186.34;5032478;28;20104;-59
2021/08/17 03:28:18;;;;;;;16.38;9.90;;;;;;;11.65;100.00;95181.00;5032344;28;20083;-58
2021/08/17 03:30:44;;;;;;;17.02;11.00;;;;;;;11.64;100.00;95179.38;5032142;28;20036;-58
2021/08/17 03:33:09;;;;;;;17.17;10.48;;;;;;;11.64;100.00;95187.44;5032260;28;20469;-58
2021/08/17 03:35:37;;;;;;;21.80;11.23;;;;;;;11.69;100.00;95189.28;5032289;28;20025;-57
2021/08/17 03:38:03;;;;;;;18.33;10.05;;;;;;;11.69;100.00;95182.06;5032269;28;20021;-58
2021/08/17 03:40:30;;;;;;;15.35;9.80;;;;;;;11.68;100.00;95183.13;4998295;28;20045;-57
2021/08/17 03:42:58;;;;;;;18.35;10.23;;;;;;;11.67;100.00;95175.34;5032346;28;20032;-58
2021/08/17 03:45:26;;;;;;;17.80;11.40;;;;;;;11.65;100.00;95175.63;5032173;28;20107;-58
2021/08/17 03:47:57;;;;;;;21.40;10.95;;;;;;;11.61;100.00;95183.41;4982022;28;20029;-55
2021/08/17 03:50:25;;;;;;;18.92;11.07;;;;;;;11.61;100.00;95183.41;5032129;28;20036;-58
2021/08/17 03:52:51;;;;;;;21.27;10.98;;;;;;;11.58;100.00;95178.56;5032019;28;20026;-56
2021/08/17 03:55:23;;;;;;;20.02;10.70;;;;;;;11.59;100.00;95174.81;4998168;28;20021;-54
2021/08/17 03:57:50;;;;;;;19.20;11.00;;;;;;;11.58;100.00;95175.88;5032049;28;20025;-58
2021/08/17 04:00:18;;;;;;;21.95;10.85;;;;;;;11.55;100.00;95179.09;5032125;28;20031;-55
2021/08/17 04:02:56;;;;;;;17.95;11.07;;;;;;;11.56;100.00;95178.03;5021147;28;20431;-58
2021/08/17 04:05:22;;;;;;;17.88;10.60;;;;;;;11.56;100.00;95180.72;5031904;28;20472;-57
2021/08/17 04:07:48;;;;;;;19.80;11.38;;;;;;;11.54;100.00;95176.69;5014438;28;20091;-57
2021/08/17 04:10:13;;;;;;;17.92;10.73;;;;;;;11.49;100.00;95182.84;5014581;28;20492;-56
2021/08/17 04:12:44;;;;;;;15.27;10.13;;;;;;;11.44;100.00;95182.06;5031910;28;20036;-58
2021/08/17 04:15:17;;;;;;;20.17;10.77;;;;;;;11.37;100.00;95179.63;5032059;28;20025;-58
2021/08/17 04:17:43;;;;;;;18.40;10.18;;;;;;;11.30;100.00;95187.16;5031945;28;20431;-57
2021/08/17 04:20:10;;;;;;;17.20;9.45;;;;;;;11.25;100.00;95179.09;5014298;28;20030;-58
2021/08/17 04:22:48;;;;;;;18.02;10.00;;;;;;;11.23;100.00;95182.03;5032110;28;20503;-58
2021/08/17 04:25:13;;;;;;;15.73;10.35;;;;;;;11.22;100.00;95187.66;5014222;28;20124;-56
2021/08/17 04:27:39;;;;;;;19.95;9.60;;;;;;;11.16;100.00;95183.34;5031951;28;20100;-59
2021/08/17 04:30:08;;;;;;;16.73;9.88;;;;;;;11.10;100.00;95187.91;5014217;28;20091;-59
2021/08/17 04:32:36;;;;;;;19.75;10.52;;;;;;;11.06;100.00;95189.50;5031742;28;20439;-57
2021/08/17 04:35:04;;;;;;;19.27;10.45;;;;;;;11.03;100.00;95184.69;5031861;28;20028;-58
2021/08/17 04:37:29;;;;;;;16.33;10.40;;;;;;;10.99;100.00;95197.81;5031610;28;20021;-59
2021/08/17 04:39:54;;;;;;;18.10;10.48;;;;;;;10.93;100.00;95200.72;5026504;23;20530;-57
2021/08/17 04:42:20;;;;;;;19.17;10.70;;;;;;;10.90;100.00;95199.38;5013645;28;20026;-56
2021/08/17 04:44:45;;;;;;;20.35;9.82;;;;;;;10.89;100.00;95203.13;5023764;28;20026;-58
2021/08/17 04:47:11;;;;;;;18.20;10.57;;;;;;;10.88;100.00;95201.53;5016178;28;20047;-57
2021/08/17 04:49:36;;;;;;;14.88;9.55;;;;;;;10.85;100.00;95199.34;5015664;28;20511;-58
2021/08/17 04:52:04;;;;;;;17.10;9.55;;;;;;;10.85;100.00;95201.22;5015378;28;20469;-56
2021/08/17 04:54:39;;;;;;;14.65;9.13;;;;;;;10.88;100.00;95200.72;5015790;28;20064;-58
2021/08/17 04:57:05;;;;;;;17.90;9.60;;;;;;;10.91;100.00;95198.31;5024484;28;20034;-58
2021/08/17 04:59:33;;;;;;;17.58;9.52;;;;;;;11.00;100.00;95198.63;5015266;28;20050;-58
2021/08/17 05:02:01;;;;;;;19.63;9.75;;;;;;;11.07;100.00;95190.31;5013462;28;20113;-58
2021/08/17 05:04:26;;;;;;;19.08;10.00;;;;;;;11.08;100.00;95190.06;5014200;28;20112;-57
2021/08/17 05:06:52;;;;;;;17.95;10.52;;;;;;;11.10;100.00;95187.13;5014152;28;20061;-58
2021/08/17 05:09:17;;;;;;;18.13;10.23;;;;;;;11.14;100.00;95180.94;5015317;28;20163;-57
2021/08/17 05:11:43;;;;;;;16.90;9.80;;;;;;;11.16;100.00;95183.34;5014102;28;20034;-57
2021/08/17 05:14:08;;;;;;;17.42;10.23;;;;;;;11.18;100.00;95186.56;5017490;28;20128;-54
2021/08/17 05:16:35;;;;;;;19.83;11.25;;;;;;;11.18;100.00;95183.88;5015240;28;20496;-53
2021/08/17 05:19:06;;;;;;;22.65;12.80;;;;;;;11.21;100.00;95183.38;5015047;28;20057;-52
2021/08/17 05:21:34;;;;;;;22.20;13.25;;;;;;;11.22;100.00;95177.75;5007632;28;20093;-57
2021/08/17 05:24:01;;;;;;;18.25;10.98;;;;;;;11.25;100.00;95179.09;4999083;28;20029;-53
2021/08/17 05:26:29;;;;;;;21.83;11.73;;;;;;;11.31;100.00;95173.47;5006037;28;20033;-53
2021/08/17 05:28:54;;;;;;;21.13;12.02;;;;;;;11.37;100.00;95171.59;4995091;28;20014;-53
2021/08/17 05:31:22;;;;;;;20.27;10.70;;;;;;;11.42;100.00;95176.97;4992852;28;20033;-56
2021/08/17 05:33:47;;;;;;;20.33;12.00;;;;;;;11.50;100.00;95178.28;5005373;28;20060;-54
2021/08/17 05:36:13;;;;;;;22.90;11.65;;;;;;;11.58;100.00;95175.88;5011580;28;20073;-58
2021/08/17 05:38:38;;;;;;;18.17;11.02;;;;;;;11.63;100.00;95171.59;5014917;28;20037;-57
2021/08/17 05:41:03;;;;;;;20.83;11.85;;;;;;;11.67;100.00;95172.66;5038542;28;20567;-55
2021/08/17 05:43:29;;;;;;;23.88;10.95;;;;;;;11.71;100.00;95179.91;5034439;28;20534;-57
2021/08/17 05:45:54;;;;;;;26.30;11.63;;;;;;;11.74;100.00;95179.38;5025574;28;20021;-57
2021/08/17 05:48:22;;;;;;;21.88;11.38;;;;;;;11.78;100.00;95177.75;5041259;28;20511;-54
2021/08/17 05:50:47;;;;;;;22.13;12.07;;;;;;;11.84;100.00;95181.28;5034107;28;20517;-55
2021/08/17 05:53:22;;;;;;;24.08;12.88;;;;;;;11.89;100.00;95186.63;5033954;28;20030;-58
2021/08/17 05:55:48;;;;;;;22.83;12.07;;;;;;;11.98;100.00;95190.38;5028969;28;20052;-58
2021/08/17 05:58:13;;;;;;;27.60;13.10;;;;;;;12.01;100.00;95181.78;5029442;28;20472;-58
2021/08/17 06:00:41;;;;;;;26.67;14.18;;;;;;;12.09;100.00;95186.59;5027339;28;20080;-56
2021/08/17 06:03:13;;;;;;;24.58;13.57;;;;;;;12.16;100.00;95178.28;5024654;28;20029;-55
2021/08/17 06:05:38;;;;;;;23.83;13.13;;;;;;;12.22;100.00;95173.69;5034027;28;20025;-55
2021/08/17 06:08:04;;;;;;;25.13;12.98;;;;;;;12.27;100.00;95171.00;5033940;28;20390;-56
2021/08/17 06:10:30;;;;;;;23.92;13.13;;;;;;;12.31;100.00;95177.44;5032526;28;20029;-56
2021/08/17 06:13:07;;;;;;;23.63;12.52;;;;;;;12.36;100.00;95175.50;5023232;28;20025;-53
2021/08/17 06:15:39;;;;;;;22.40;12.65;;;;;;;12.40;100.00;95183.84;5009132;28;20040;-53
2021/08/17 06:18:05;;;;;;;26.42;13.45;;;;;;;12.44;100.00;95184.91;5032416;28;20029;-54
2021/08/17 06:20:31;;;;;;;22.20;12.25;;;;;;;12.48;100.00;95194.84;5021174;28;20080;-54
2021/08/17 06:22:56;;;;;;;22.83;13.00;;;;;;;12.59;100.00;95189.41;5033633;28;20116;-54
2021/08/17 06:25:22;;;;;;;24.33;12.43;;;;;;;12.54;100.00;95195.63;5025038;28;20021;-55
2021/08/17 06:27:47;;;;;;;21.45;12.13;;;;;;;12.60;100.00;95189.16;5011649;28;20033;-56
2021/08/17 06:30:13;;;;;;;21.00;12.45;;;;;;;12.67;100.00;95188.84;5031275;28;20053;-58
2021/08/17 06:32:38;;;;;;;21.35;11.90;;;;;;;12.75;100.00;95185.59;5016126;28;20029;-57
2021/08/17 06:35:04;;;;;;;20.88;11.95;;;;;;;12.87;100.00;95182.59;5030069;28;20077;-59
2021/08/17 06:37:30;;;;;;;23.10;11.60;;;;;;;12.83;100.00;95174.28;5026856;28;20095;-58
2021/08/17 06:39:55;;;;;;;20.48;10.00;;;;;;;12.73;100.00;95180.50;5042696;28;20522;-56
2021/08/17 06:42:38;;;;;;;16.67;10.60;;;;;;;12.85;100.00;95188.25;5029744;28;20029;-58
2021/08/17 06:45:13;;;;;;;16.35;10.10;;;;;;;13.10;100.00;95181.91;5033218;28;20029;-58
2021/08/17 06:47:54;;;;;;;17.80;9.65;;;;;;;13.36;100.00;95189.88;5033311;28;20517;-57
2021/08/17 06:50:20;;;;;;;16.00;9.25;;;;;;;13.66;100.00;95178.06;5033164;28;20069;-58
2021/08/17 06:52:47;;;;;;;17.42;9.73;;;;;;;13.84;100.00;95180.06;5033085;28;20030;-57
2021/08/17 06:55:14;;;;;;;17.17;9.77;;;;;;;13.92;100.00;95179.47;5031418;28;20040;-58
2021/08/17 06:57:45;;;;;;;16.92;9.82;;;;;;;14.04;100.00;95177.19;5033134;28;20025;-55
2021/08/17 07:00:17;;;;;;;15.25;9.73;;;;;;;14.31;100.00;95170.44;5032906;28;20021;-56
2021/08/17 07:02:46;;;;;;;17.17;9.15;;;;;;;14.54;100.00;95160.78;5033084;28;20025;-54
2021/08/17 07:05:14;;;;;;;16.42;8.13;;;;;;;14.69;100.00;95153.34;5031968;28;20385;-53
2021/08/17 07:07:40;;;;;;;18.75;9.70;;;;;;;14.73;100.00;95153.56;5033455;28;20029;-52
2021/08/17 07:10:17;;;;;;;14.68;9.82;;;;;;;14.83;100.00;95147.22;5031287;28;20382;-54
2021/08/17 07:12:46;;;;;;;15.27;9.93;;;;;;;14.72;100.00;95146.56;5032737;28;20029;-53
2021/08/17 07:15:11;;;;;;;21.92;10.07;;;;;;;14.70;100.00;95138.78;5033014;28;20022;-55
2021/08/17 07:17:37;;;;;;;15.85;9.20;;;;;;;14.65;100.00;95124.53;5032793;28;20395;-57
2021/08/17 07:20:19;;;;;;;16.92;9.57;;;;;;;14.55;100.00;95114.72;5032362;28;20029;-53
2021/08/17 07:22:47;;;;;;;15.52;9.70;;;;;;;14.55;100.00;95093.16;5033407;28;20026;-53
2021/08/17 07:25:16;;;;;;;17.25;10.32;;;;;;;14.55;100.00;95082.38;5032515;28;20112;-55
2021/08/17 07:27:41;;;;;;;19.88;10.75;;;;;;;14.71;100.00;95062.19;5031228;28;20053;-53
2021/08/17 07:30:12;;;;;;;15.13;9.85;;;;;;;14.89;100.00;95047.09;5031141;28;20060;-53
2021/08/17 07:32:45;;;;;;;17.33;9.90;;;;;;;15.08;100.00;95018.19;5030918;28;20029;-54
2021/08/17 07:35:13;;;;;;;18.13;9.88;;;;;;;15.17;100.00;94999.44;5032481;28;20034;-55
2021/08/17 07:37:47;;;;;;;16.85;9.85;;;;;;;15.29;100.00;94967.38;5032582;28;20079;-53
2021/08/17 07:40:14;;;;;;;16.40;9.82;;;;;;;15.40;100.00;94953.72;5035757;28;20439;-54
2021/08/17 07:42:46;;;;;;;17.85;10.55;;;;;;;15.64;100.00;94936.28;5031035;28;20132;-52
2021/08/17 07:45:17;;;;;;;18.75;10.82;;;;;;;15.88;100.00;94935.28;5032347;28;20075;-53
2021/08/17 07:47:43;;;;;;;17.15;10.02;;;;;;;16.24;100.00;94932.59;5032435;28;20108;-53
2021/08/17 07:50:13;;;;;;;15.48;9.73;;;;;;;16.48;100.00;94930.44;5030950;28;20047;-56
2021/08/17 07:52:50;;;;;;;15.73;9.80;;;;;;;16.87;100.00;94953.38;5031165;28;20029;-58
2021/08/17 07:55:16;;;;;;;16.63;10.02;;;;;;;17.19;100.00;94987.50;5031803;28;20029;-58
2021/08/17 07:57:42;;;;;;;15.30;9.40;;;;;;;17.25;100.00;95032.25;5032033;28;20514;-56
2021/08/17 08:00:10;;;;;;;15.63;10.20;;;;;;;17.27;100.00;95046.31;5031249;28;20073;-58
2021/08/17 08:02:36;;;;;;;17.02;10.25;;;;;;;17.50;100.00;95073.38;5032235;28;20376;-56
2021/08/17 08:05:06;;;;;;;16.42;10.38;;;;;;;17.49;100.00;95117.81;5030856;28;20032;-58
2021/08/17 08:07:38;;;;;;;14.82;9.90;;;;;;;17.67;100.00;95106.78;5041429;28;20033;-56
2021/08/17 08:10:09;;;;;;;15.55;9.75;;;;;;;18.08;100.00;95184.38;5031919;28;20099;-58
2021/08/17 08:12:46;;;;;;;15.73;10.15;;;;;;;18.33;100.00;95268.91;5031918;28;20022;-54
2021/08/17 08:15:12;;;;;;;16.55;10.55;;;;;;;18.09;100.00;95245.63;5033051;28;20034;-57
2021/08/17 08:17:38;;;;;;;15.55;9.70;;;;;;;17.95;100.00;95277.41;5018022;28;20055;-55
2021/08/17 08:20:13;;;;;;;15.15;9.95;;;;;;;17.90;100.00;95269.38;5035991;28;20025;-56
2021/08/17 08:22:39;;;;;;;17.08;10.57;;;;;;;17.72;100.00;95321.81;5034715;28;20033;-53
2021/08/17 08:25:06;;;;;;;15.50;10.50;;;;;;;17.44;100.00;95367.03;5036020;28;20024;-53
2021/08/17 08:27:35;;;;;;;16.60;10.52;;;;;;;17.41;100.00;95371.16;5034265;28;20120;-54
2021/08/17 08:30:08;;;;;;;17.48;10.43;;;;;;;17.45;100.00;95363.22;5034408;28;20434;-56
2021/08/17 08:32:40;;;;;;;17.08;11.32;;;;;;;17.34;100.00;95397.81;5035802;28;20017;-54
2021/08/17 08:35:12;;;;;;;17.90;11.75;;;;;;;17.24;100.00;95416.97;5034406;28;20059;-53
2021/08/17 08:37:41;;;;;;;16.67;10.80;;;;;;;17.08;100.00;95378.56;5035841;28;20073;-52
2021/08/17 08:40:31;;;;;;;20.23;10.85;;;;;;;17.01;100.00;95332.94;5035201;28;20045;-52
2021/08/17 08:43:03;;;;;;;18.13;11.35;;;;;;;16.96;100.00;95283.53;5004088;28;20029;-55
2021/08/17 08:45:28;;;;;;;17.08;11.38;;;;;;;16.97;100.00;95296.75;5035793;28;20029;-52
2021/08/17 08:47:54;;;;;;;17.45;11.32;;;;;;;16.98;100.00;95363.31;5035664;28;20040;-55
2021/08/17 08:50:19;;;;;;;16.95;11.23;;;;;;;17.13;100.00;95358.69;5035038;28;20108;-53
2021/08/17 08:52:46;;;;;;;19.67;11.95;;;;;;;17.16;100.00;95434.72;5034156;28;20025;-52
2021/08/17 08:55:17;;;;;;;18.95;12.32;;;;;;;17.13;100.00;95442.59;5035578;28;20033;-52
2021/08/17 08:57:46;;;;;;;16.88;11.05;;;;;;;17.09;100.00;95412.63;5034224;28;20032;-53
2021/08/17 09:00:20;;;;;;;20.35;11.93;;;;;;;17.12;100.00;95366.03;5035270;28;20022;-52
2021/08/17 09:02:50;;;;;;;17.70;11.57;;;;;;;16.92;100.00;95366.38;5035276;28;20048;-53
2021/08/17 09:05:16;;;;;;;19.33;11.63;;;;;;;16.80;100.00;95334.41;5029418;28;20100;-55
2021/08/17 09:07:48;;;;;;;17.70;11.40;;;;;;;16.57;100.00;95324.50;5027482;28;20093;-56
2021/08/17 09:10:16;;;;;;;16.23;9.77;;;;;;;16.48;100.00;95318.97;5028035;28;20514;-58
2021/08/17 09:12:44;;;;;;;16.85;11.05;;;;;;;16.37;100.00;95274.28;5027369;28;20029;-58
2021/08/17 09:15:24;;;;;;;17.55;11.55;;;;;;;16.35;100.00;95261.06;5014144;28;20399;-56
2021/08/17 09:18:13;;;;;;;15.77;10.95;;;;;;;16.44;100.00;95253.88;5010826;28;20025;-57
2021/08/17 09:20:43;;;;;;;20.20;11.65;;;;;;;16.66;100.00;95242.38;5002763;28;20036;-53
2021/08/17 09:23:29;;;;;;;18.98;12.10;;;;;;;16.98;100.00;95268.59;5007119;28;20021;-58
2021/08/17 09:25:59;;;;;;;18.88;11.63;;;;;;;17.12;100.00;95292.13;5026547;28;20568;-56
2021/08/17 09:28:28;;;;;;;19.98;11.02;;;;;;;17.47;100.00;95329.31;5004698;28;20034;-57
2021/08/17 09:30:53;;;;;;;17.45;11.77;;;;;;;17.60;100.00;95357.53;5031902;28;20076;-57
2021/08/17 09:33:19;;;;;;;27.65;12.13;;;;;;;17.58;100.00;95373.25;5034379;28;20030;-54
2021/08/17 09:35:57;;;;;;;19.30;11.73;;;;;;;17.48;100.00;95362.66;5034714;28;20049;-55
2021/08/17 09:38:31;;;;;;;20.38;12.18;;;;;;;17.63;100.00;95381.28;5034478;28;20033;-57
2021/08/17 09:41:20;;;;;;;20.88;12.80;;;;;;;18.18;100.00;95409.16;5034513;28;20064;-59
2021/08/17 09:44:04;;;;;;;19.83;12.40;;;;;;;17.86;100.00;95439.91;5033055;28;20049;-57
2021/08/17 09:46:52;;;;;;;20.15;11.82;;;;;;;17.56;100.00;95425.03;5034605;28;20021;-53
2021/08/17 09:49:26;;;;;;;17.10;11.15;;;;;;;17.49;100.00;95431.97;5034186;28;20021;-57
2021/08/17 09:51:53;;;;;;;20.80;12.52;;;;;;;17.39;100.00;95468.94;5034365;28;20032;-56
2021/08/17 09:54:21;;;;;;;19.52;12.15;;;;;;;17.38;100.00;95417.81;5033052;28;20386;-54
2021/08/17 09:57:00;;;;;;;19.13;11.50;;;;;;;17.56;100.00;95430.44;5034402;28;20045;-55
2021/08/17 09:59:27;;;;;;;21.77;12.38;;;;;;;17.71;100.00;95434.00;5034183;28;20026;-59
2021/08/17 10:01:54;;;;;;;20.33;11.65;;;;;;;17.93;100.00;95448.44;5032991;28;20565;-57
2021/08/17 10:04:22;;;;;;;18.92;11.95;;;;;;;18.16;100.00;95491.91;5034233;28;20022;-56
2021/08/17 10:06:52;;;;;;;18.88;12.10;;;;;;;18.47;100.00;95492.84;5029197;28;20071;-56
2021/08/17 10:09:18;;;;;;;19.85;12.07;;;;;;;18.52;100.00;95481.06;5014299;28;20165;-58
2021/08/17 10:11:45;;;;;;;16.98;10.82;;;;;;;18.40;100.00;95478.09;5014141;28;20388;-57
2021/08/17 10:14:11;;;;;;;16.52;10.95;;;;;;;18.32;100.00;95497.78;5012790;28;20018;-59
2021/08/17 10:16:37;;;;;;;20.52;11.98;;;;;;;18.30;100.00;95462.84;5014210;28;20056;-58
2021/08/17 10:19:03;;;;;;;17.88;11.68;;;;;;;18.37;100.00;95478.72;4996298;28;20484;-57
2021/08/17 10:21:38;;;;;;;18.55;12.05;;;;;;;18.72;100.00;95458.94;5013909;28;20102;-58
2021/08/17 10:24:25;;;;;;;20.27;12.70;;;;;;;19.09;100.00;95497.69;5013918;28;20022;-57
2021/08/17 10:26:53;;;;;;;18.13;11.57;;;;;;;19.28;100.00;95598.81;5013789;28;20104;-54
2021/08/17 10:29:27;;;;;;;19.85;12.07;;;;;;;19.37;100.00;95643.16;5012553;28;20104;-56
2021/08/17 10:31:53;;;;;;;18.00;11.77;;;;;;;19.62;100.00;95638.25;5013832;28;20109;-55
2021/08/17 10:34:36;;;;;;;17.52;11.68;;;;;;;19.65;100.00;95662.91;5013636;28;20033;-55
2021/08/17 10:37:21;;;;;;;17.33;11.23;;;;;;;19.97;100.00;95577.56;5013659;28;20036;-58
2021/08/17 10:39:47;;;;;;;17.73;11.65;;;;;;;20.09;100.00;95633.31;5031252;23;20080;-61
2021/08/17 10:42:22;;;;;;;19.42;11.50;;;;;;;20.23;100.00;95621.22;5047536;28;20056;-61
2021/08/17 10:44:52;;;;;;;23.38;11.52;;;;;;;19.96;100.00;95649.34;5031975;28;20017;-60
2021/08/17 10:47:35;;;;;;;16.90;11.32;;;;;;;19.89;100.00;95681.63;5033085;28;20029;-60
2021/08/17 10:50:02;;;;;;;19.35;11.15;;;;;;;19.87;100.00;95658.59;5045965;28;20433;-60
2021/08/17 10:52:45;;;;;;;21.80;12.48;;;;;;;19.76;100.00;95687.13;5034934;28;20403;-61
2021/08/17 10:55:24;;;;;;;;;;;;;;;19.95;100.00;95655.91;5035616;28;20052;-61
2021/08/17 10:58:11;;;;;;;17.98;11.38;;;;;;;20.66;100.00;95705.00;5034975;28;20334;-60
2021/08/17 11:00:43;;;;;;;19.75;11.05;;;;;;;20.73;100.00;95709.97;5024573;28;20094;-61
2021/08/17 11:03:13;;;;;;;19.23;12.43;;;;;;;21.01;100.00;95640.56;5052845;28;20025;-61
2021/08/17 11:05:52;;;;;;;18.38;11.70;;;;;;;21.01;100.00;95691.50;5052942;28;20060;-61
2021/08/17 11:08:34;;;;;;;18.40;11.93;;;;;;;20.72;100.00;95714.59;5034836;28;20081;-61
2021/08/17 11:11:01;;;;;;;19.87;12.77;;;;;;;20.51;100.00;95668.09;5052725;28;20025;-61
2021/08/17 11:13:29;;;;;;;18.67;11.55;;;;;;;20.15;100.00;95692.66;5052932;28;20036;-61
2021/08/17 11:16:14;;;;;;;21.50;13.27;;;;;;;19.96;100.00;95698.31;5051493;28;20025;-61
2021/08/17 11:18:54;;;;;;;20.08;12.15;;;;;;;20.09;100.00;95636.81;5052062;28;20025;-61
2021/08/17 11:21:49;;;;;;;19.08;12.05;;;;;;;20.17;100.00;95648.84;5051761;28;20047;-61
2021/08/17 11:24:40;;;;;;;16.42;10.57;;;;;;;20.34;100.00;95708.78;5018237;28;20052;-61
2021/08/17 11:27:20;;;;;;;19.88;12.50;;;;;;;20.43;100.00;95696.06;5035771;28;20032;-61
2021/08/17 11:30:01;;;;;;;20.20;12.38;;;;;;;20.33;100.00;95685.44;5052522;28;20071;-61